createdAt,value
2023-06-17T00:00:45.647Z,59.88
2023-06-17T00:03:12.240Z,60.86
2023-06-17T00:05:39.482Z,59.72
2023-06-17T00:08:05.983Z,60.92
2023-06-17T00:10:32.530Z,60.12
2023-06-17T00:12:59.598Z,60.28
2023-06-17T00:15:26.271Z,61.61
2023-06-17T00:17:52.790Z,60.47
2023-06-17T00:20:24.775Z,60.18
2023-06-17T00:22:53.722Z,60.92
2023-06-17T00:25:20.089Z,60.01
2023-06-17T00:27:46.584Z,59.48
2023-06-17T00:30:13.173Z,61.08
2023-06-17T00:32:41.118Z,59.00
2023-06-17T00:35:07.907Z,62.37
2023-06-17T00:37:34.444Z,61.04
2023-06-17T00:40:00.847Z,59.50
2023-06-17T00:42:27.498Z,61.41
2023-06-17T00:44:54.170Z,60.98
2023-06-17T00:47:21.095Z,60.72
2023-06-17T00:49:48.365Z,60.20
2023-06-17T00:52:31.671Z,62.22
2023-06-17T00:55:02.262Z,59.44
2023-06-17T00:57:30.437Z,60.07
2023-06-17T00:59:56.916Z,59.65
2023-06-17T01:02:26.666Z,58.98
2023-06-17T01:04:55.012Z,61.32
2023-06-17T01:07:43.792Z,63.73
2023-06-17T01:10:17.412Z,62.00
2023-06-17T01:12:45.421Z,62.88
2023-06-17T01:15:14.543Z,61.05
2023-06-17T01:17:44.997Z,61.41
2023-06-17T01:20:14.279Z,62.59
2023-06-17T01:22:41.422Z,61.95
2023-06-17T01:25:09.322Z,62.69
2023-06-17T01:27:36.968Z,61.05
2023-06-17T01:30:04.006Z,60.47
2023-06-17T01:32:30.700Z,61.92
2023-06-17T01:35:16.026Z,62.37
2023-06-17T01:37:58.287Z,63.27
2023-06-17T01:40:26.522Z,63.63
2023-06-17T01:42:54.479Z,63.61
2023-06-17T01:45:21.976Z,63.85
2023-06-17T01:47:48.724Z,62.21
2023-06-17T01:50:20.311Z,63.49
2023-06-17T01:52:47.582Z,63.44
2023-06-17T01:55:15.332Z,63.67
2023-06-17T01:57:41.783Z,64.14
2023-06-17T02:00:08.617Z,66.26
2023-06-17T02:02:36.857Z,65.76
2023-06-17T02:05:03.586Z,64.42
2023-06-17T02:07:30.103Z,62.94
2023-06-17T02:09:56.514Z,62.61
2023-06-17T02:12:23.221Z,62.30
2023-06-17T02:14:49.929Z,64.15
2023-06-17T02:17:16.728Z,65.32
2023-06-17T02:19:43.279Z,68.23
2023-06-17T02:22:09.796Z,66.49
2023-06-17T02:24:36.969Z,65.99
2023-06-17T02:27:03.779Z,66.85
2023-06-17T02:29:30.379Z,68.24
2023-06-17T02:31:56.856Z,66.13
2023-06-17T02:34:23.296Z,66.55
2023-06-17T02:36:50.780Z,66.88
2023-06-17T02:39:17.399Z,66.50
2023-06-17T02:41:43.864Z,66.14
2023-06-17T02:44:10.428Z,66.87
2023-06-17T02:46:36.978Z,64.90
2023-06-17T02:49:03.454Z,66.16
2023-06-17T02:51:30.424Z,64.11
2023-06-17T02:53:56.961Z,65.03
2023-06-17T02:56:23.523Z,67.21
2023-06-17T02:58:50.277Z,68.29
2023-06-17T03:01:18.146Z,69.02
2023-06-17T03:03:45.950Z,68.02
2023-06-17T03:06:14.326Z,69.49
2023-06-17T03:08:42.000Z,69.19
2023-06-17T03:11:09.122Z,66.16
2023-06-17T03:13:35.534Z,65.46
2023-06-17T03:16:02.424Z,66.66
2023-06-17T03:18:29.454Z,66.45
2023-06-17T03:20:56.237Z,67.21
2023-06-17T03:23:22.999Z,66.76
2023-06-17T03:25:51.039Z,66.66
2023-06-17T03:28:18.805Z,67.91
2023-06-17T03:30:45.764Z,68.83
2023-06-17T03:33:13.815Z,68.81
2023-06-17T03:35:40.747Z,67.42
2023-06-17T03:38:07.377Z,67.34
2023-06-17T03:40:33.905Z,67.46
2023-06-17T03:43:00.375Z,66.41
2023-06-17T03:45:26.957Z,68.53
2023-06-17T03:47:53.463Z,70.10
2023-06-17T03:50:20.318Z,70.00
2023-06-17T03:52:46.970Z,69.86
2023-06-17T03:55:13.844Z,68.02
2023-06-17T03:57:41.256Z,70.62
2023-06-17T04:00:08.500Z,70.20
2023-06-17T04:02:35.096Z,68.10
2023-06-17T04:05:02.253Z,69.28
2023-06-17T04:07:29.620Z,67.71
2023-06-17T04:10:06.281Z,68.47
2023-06-17T04:12:34.260Z,68.76
2023-06-17T04:15:00.823Z,68.23
2023-06-17T04:17:27.777Z,69.02
2023-06-17T04:19:55.991Z,67.07
2023-06-17T04:22:22.487Z,65.68
2023-06-17T04:24:48.995Z,67.30
2023-06-17T04:27:15.469Z,69.27
2023-06-17T04:29:44.621Z,67.32
2023-06-17T04:32:11.480Z,68.74
2023-06-17T04:34:39.351Z,68.23
2023-06-17T04:37:06.162Z,69.51
2023-06-17T04:39:35.804Z,67.99
2023-06-17T04:42:02.371Z,67.97
2023-06-17T04:44:32.226Z,69.30
2023-06-17T04:47:00.613Z,67.26
2023-06-17T04:49:28.190Z,66.20
2023-06-17T04:51:54.708Z,66.07
2023-06-17T04:54:21.139Z,64.95
2023-06-17T04:56:49.547Z,64.11
2023-06-17T04:59:16.046Z,66.41
2023-06-17T05:01:42.465Z,68.69
2023-06-17T05:04:09.029Z,65.94
2023-06-17T05:06:36.293Z,69.48
2023-06-17T05:09:03.538Z,67.20
2023-06-17T05:11:29.958Z,70.93
2023-06-17T05:13:56.375Z,71.58
2023-06-17T05:16:22.866Z,72.79
2023-06-17T05:18:49.406Z,73.51
2023-06-17T05:21:15.912Z,74.90
2023-06-17T05:23:42.341Z,75.82
2023-06-17T05:26:08.822Z,76.69
2023-06-17T05:28:35.326Z,76.07
2023-06-17T05:31:01.736Z,75.20
2023-06-17T05:33:30.529Z,74.00
2023-06-17T05:36:01.342Z,74.10
2023-06-17T05:38:28.491Z,73.41
2023-06-17T05:40:57.723Z,73.36
2023-06-17T05:43:28.261Z,72.83
2023-06-17T05:45:54.827Z,72.75
2023-06-17T05:50:47.849Z,71.41
2023-06-17T05:53:14.322Z,70.71
2023-06-17T05:55:40.753Z,71.05
2023-06-17T05:58:07.207Z,72.18
2023-06-17T06:00:33.908Z,71.73
2023-06-17T06:03:00.475Z,68.25
2023-06-17T06:05:27.290Z,67.61
2023-06-17T06:07:53.747Z,65.22
2023-06-17T06:10:22.168Z,66.93
2023-06-17T06:12:50.396Z,67.31
2023-06-17T06:15:16.809Z,66.07
2023-06-17T06:17:43.439Z,62.56
2023-06-17T06:20:10.352Z,62.06
2023-06-17T06:22:36.813Z,59.83
2023-06-17T06:25:03.562Z,59.30
2023-06-17T06:27:30.054Z,59.00
2023-06-17T06:29:56.558Z,57.26
2023-06-17T06:32:23.062Z,58.14
2023-06-17T06:34:49.562Z,57.22
2023-06-17T06:37:16.015Z,56.54
2023-06-17T06:39:44.022Z,54.64
2023-06-17T06:42:12.253Z,55.51
2023-06-17T06:44:38.948Z,58.97
2023-06-17T06:47:05.611Z,55.96
2023-06-17T06:49:32.078Z,54.46
2023-06-17T06:51:58.482Z,52.89
2023-06-17T06:54:24.904Z,52.08
2023-06-17T06:56:52.114Z,51.88
2023-06-17T06:59:18.534Z,50.76
2023-06-17T07:01:45.012Z,48.39
2023-06-17T07:04:12.841Z,46.62
2023-06-17T07:06:39.406Z,47.06
2023-06-17T07:09:05.868Z,46.36
2023-06-17T07:11:32.334Z,45.78
2023-06-17T07:13:58.980Z,43.92
2023-06-17T07:16:25.426Z,44.50
2023-06-17T07:18:51.874Z,44.67
2023-06-17T07:21:18.285Z,44.19
2023-06-17T07:23:44.749Z,44.89
2023-06-17T07:26:11.188Z,43.20
2023-06-17T07:28:37.619Z,44.15
2023-06-17T07:31:04.457Z,44.04
2023-06-17T07:33:31.543Z,41.42
2023-06-17T07:35:58.050Z,39.06
2023-06-17T07:38:25.297Z,42.31
2023-06-17T07:40:52.413Z,42.32
2023-06-17T07:43:18.898Z,39.49
2023-06-17T07:45:45.355Z,38.58
2023-06-17T07:48:11.883Z,41.03
2023-06-17T07:50:38.430Z,41.66
2023-06-17T07:53:04.909Z,38.93
2023-06-17T07:55:31.402Z,37.64
2023-06-17T07:57:57.826Z,38.24
2023-06-17T08:00:24.490Z,36.86
2023-06-17T08:02:51.251Z,37.00
2023-06-17T08:05:17.928Z,34.05
2023-06-17T08:07:44.563Z,33.68
2023-06-17T08:10:11.140Z,33.71
2023-06-17T08:12:37.611Z,36.62
2023-06-17T08:15:04.451Z,35.44
2023-06-17T08:17:30.980Z,35.15
2023-06-17T08:19:57.529Z,34.50
2023-06-17T08:22:24.228Z,35.35
2023-06-17T08:24:50.731Z,35.84
2023-06-17T08:27:17.249Z,34.38
2023-06-17T08:29:43.687Z,35.35
2023-06-17T08:32:10.087Z,34.77
2023-06-17T08:34:37.269Z,35.39
2023-06-17T08:37:05.498Z,32.16
2023-06-17T08:39:32.989Z,32.44
2023-06-17T08:41:59.903Z,33.04
2023-06-17T08:44:30.005Z,32.65
2023-06-17T08:47:01.382Z,33.42
2023-06-17T08:49:28.915Z,32.96
2023-06-17T08:52:00.616Z,32.70
2023-06-17T08:54:31.599Z,31.83
2023-06-17T08:56:58.047Z,34.16
2023-06-17T08:59:24.511Z,34.02
2023-06-17T09:01:52.849Z,31.12
2023-06-17T09:04:21.069Z,32.17
2023-06-17T09:06:48.455Z,32.86
2023-06-17T09:09:14.993Z,32.42
2023-06-17T09:11:51.211Z,29.47
2023-06-17T09:14:19.901Z,30.69
2023-06-17T09:16:46.610Z,30.51
2023-06-17T09:19:16.030Z,30.40
2023-06-17T09:21:42.600Z,29.83
2023-06-17T09:24:12.230Z,28.99
2023-06-17T09:26:43.547Z,28.28
2023-06-17T09:29:14.120Z,28.53
2023-06-17T09:31:54.798Z,29.49
2023-06-17T09:34:22.681Z,28.54
2023-06-17T09:37:01.138Z,27.74
2023-06-17T09:39:33.064Z,30.47
2023-06-17T09:42:13.286Z,30.44
2023-06-17T09:44:44.880Z,28.04
2023-06-17T09:47:12.368Z,27.45
2023-06-17T09:49:39.419Z,27.95
2023-06-17T09:52:16.879Z,28.05
2023-06-17T09:54:44.191Z,28.46
2023-06-17T09:57:14.708Z,29.35
2023-06-17T09:59:41.184Z,27.59
2023-06-17T10:02:08.801Z,27.35
2023-06-17T10:04:38.929Z,28.42
2023-06-17T10:07:08.489Z,30.99
2023-06-17T10:09:35.769Z,28.51
2023-06-17T10:12:03.939Z,27.02
2023-06-17T10:14:34.509Z,28.25
2023-06-17T10:17:04.205Z,27.67
2023-06-17T10:19:34.637Z,28.52
2023-06-17T10:22:05.831Z,26.79
2023-06-17T10:24:33.338Z,26.34
2023-06-17T10:29:36.613Z,28.13
2023-06-17T10:32:26.075Z,26.24
2023-06-17T10:35:07.430Z,26.92
2023-06-17T10:37:40.371Z,28.01
2023-06-17T10:40:27.181Z,26.53
2023-06-17T10:43:03.031Z,26.86
2023-06-17T10:45:31.327Z,25.98
2023-06-17T10:48:22.341Z,25.60
2023-06-17T10:50:55.690Z,25.03
2023-06-17T10:53:50.208Z,25.42
2023-06-17T10:56:17.828Z,25.27
2023-06-17T10:58:46.630Z,27.73
2023-06-17T11:01:13.321Z,25.38
2023-06-17T11:03:40.559Z,24.92
2023-06-17T11:06:08.818Z,25.95
2023-06-17T11:08:37.310Z,23.65
2023-06-17T11:11:06.521Z,25.55
2023-06-17T11:13:33.077Z,23.28
2023-06-17T11:15:59.490Z,25.23
2023-06-17T11:18:26.254Z,25.39
2023-06-17T11:20:52.695Z,24.40
2023-06-17T11:23:19.306Z,24.52
2023-06-17T11:25:46.079Z,24.82
2023-06-17T11:28:12.951Z,22.33
2023-06-17T11:30:42.122Z,23.84
2023-06-17T11:33:09.312Z,22.00
2023-06-17T11:35:36.338Z,24.60
2023-06-17T11:38:03.325Z,22.98
2023-06-17T11:40:29.685Z,21.91
2023-06-17T11:42:58.533Z,22.44
2023-06-17T11:45:25.919Z,23.52
2023-06-17T11:47:54.869Z,23.24
2023-06-17T11:50:21.554Z,24.26
2023-06-17T11:53:00.009Z,22.80
2023-06-17T11:55:34.274Z,21.48
2023-06-17T11:58:02.952Z,23.74
2023-06-17T12:00:30.648Z,21.03
2023-06-17T12:03:00.816Z,24.07
2023-06-17T12:05:32.006Z,21.24
2023-06-17T12:08:02.262Z,22.35
2023-06-17T12:10:28.861Z,19.95
2023-06-17T12:12:58.768Z,23.78
2023-06-17T12:15:36.838Z,21.70
2023-06-17T12:18:11.584Z,22.84
2023-06-17T12:20:38.604Z,22.45
2023-06-17T12:23:05.138Z,22.19
2023-06-17T12:25:35.502Z,22.98
2023-06-17T12:28:02.949Z,22.23
2023-06-17T12:30:29.429Z,24.25
2023-06-17T12:32:55.948Z,23.72
2023-06-17T12:35:24.004Z,22.65
2023-06-17T12:37:52.780Z,22.69
2023-06-17T12:40:19.594Z,23.56
2023-06-17T12:42:46.141Z,23.51
2023-06-17T12:45:14.052Z,23.53
2023-06-17T12:47:40.697Z,23.51
2023-06-17T12:50:07.646Z,22.44
2023-06-17T12:52:35.309Z,22.79
2023-06-17T12:55:02.346Z,22.73
2023-06-17T12:57:30.339Z,22.84
2023-06-17T12:59:57.017Z,23.16
2023-06-17T13:02:23.530Z,21.92
2023-06-17T13:04:50.503Z,20.77
2023-06-17T13:07:17.841Z,22.36
2023-06-17T13:09:44.503Z,20.74
2023-06-17T13:12:12.251Z,22.71
2023-06-17T13:14:38.692Z,22.91
2023-06-17T13:17:05.939Z,22.47
2023-06-17T13:19:32.552Z,21.20
2023-06-17T13:21:59.274Z,21.71
2023-06-17T13:24:26.245Z,22.70
2023-06-17T13:26:53.041Z,21.58
2023-06-17T13:29:22.189Z,21.01
2023-06-17T13:31:49.141Z,21.66
2023-06-17T13:34:15.665Z,20.54
2023-06-17T13:36:46.043Z,19.50
2023-06-17T13:39:13.090Z,22.34
2023-06-17T13:41:39.604Z,20.85
2023-06-17T13:44:06.910Z,19.65
2023-06-17T13:46:33.381Z,21.43
2023-06-17T13:49:00.130Z,21.60
2023-06-17T13:51:26.815Z,19.64
2023-06-17T13:53:53.304Z,20.55
2023-06-17T13:56:19.820Z,19.34
2023-06-17T13:58:49.359Z,19.41
2023-06-17T14:01:15.858Z,20.25
2023-06-17T14:03:42.391Z,21.92
2023-06-17T14:06:08.846Z,22.16
2023-06-17T14:08:35.331Z,20.73
2023-06-17T14:11:01.820Z,20.37
2023-06-17T14:13:28.360Z,20.67
2023-06-17T14:15:55.301Z,19.80
2023-06-17T14:18:23.577Z,20.15
2023-06-17T14:20:50.045Z,21.59
2023-06-17T14:23:16.633Z,19.78
2023-06-17T14:25:43.094Z,18.77
2023-06-17T14:28:10.129Z,20.70
2023-06-17T14:30:37.716Z,20.73
2023-06-17T14:33:04.206Z,19.42
2023-06-17T14:35:30.812Z,20.28
2023-06-17T14:37:57.252Z,20.71
2023-06-17T14:40:24.025Z,20.99
2023-06-17T14:42:50.806Z,20.81
2023-06-17T14:45:17.522Z,21.73
2023-06-17T14:47:45.101Z,21.26
2023-06-17T14:50:13.078Z,20.31
2023-06-17T14:52:40.608Z,20.76
2023-06-17T14:55:07.870Z,20.01
2023-06-17T14:57:34.444Z,20.23
2023-06-17T15:00:01.317Z,19.06
2023-06-17T15:02:46.101Z,20.80
2023-06-17T15:05:13.217Z,20.92
2023-06-17T15:07:39.715Z,19.73
2023-06-17T15:10:07.012Z,20.05
2023-06-17T15:12:33.496Z,19.41
2023-06-17T15:14:59.918Z,21.00
2023-06-17T15:17:26.911Z,20.15
2023-06-17T15:19:53.318Z,21.61
2023-06-17T15:22:20.173Z,21.45
2023-06-17T15:24:46.642Z,20.77
2023-06-17T15:27:13.071Z,22.07
2023-06-17T15:29:40.246Z,21.69
2023-06-17T15:32:07.105Z,22.70
2023-06-17T15:34:33.508Z,20.28
2023-06-17T15:36:59.954Z,19.94
2023-06-17T15:39:28.813Z,19.83
2023-06-17T15:41:55.701Z,23.20
2023-06-17T15:44:23.606Z,22.18
2023-06-17T15:46:50.894Z,23.15
2023-06-17T15:49:18.216Z,23.45
2023-06-17T15:51:44.692Z,23.38
2023-06-17T15:54:11.690Z,24.75
2023-06-17T15:56:39.296Z,25.68
2023-06-17T15:59:06.378Z,25.34
2023-06-17T16:01:32.954Z,24.96
2023-06-17T16:04:00.193Z,25.67
2023-06-17T16:06:26.888Z,25.83
2023-06-17T16:08:54.490Z,26.57
2023-06-17T16:11:20.997Z,26.74
2023-06-17T16:13:47.424Z,28.20
2023-06-17T16:16:13.978Z,27.05
2023-06-17T16:18:40.435Z,26.81
2023-06-17T16:21:06.924Z,25.89
2023-06-17T16:23:33.486Z,26.97
2023-06-17T16:26:00.096Z,28.42
2023-06-17T16:28:26.769Z,25.56
2023-06-17T16:30:53.258Z,26.02
2023-06-17T16:33:19.687Z,26.93
2023-06-17T16:35:52.330Z,27.33
2023-06-17T16:38:18.808Z,26.78
2023-06-17T16:40:45.272Z,27.46
2023-06-17T16:43:11.787Z,27.53
2023-06-17T16:45:38.801Z,26.16
2023-06-17T16:48:06.737Z,26.01
2023-06-17T16:50:34.531Z,26.27
2023-06-17T16:53:01.032Z,25.85
2023-06-17T16:55:27.418Z,24.67
2023-06-17T16:57:53.860Z,24.84
2023-06-17T17:00:20.704Z,25.59
2023-06-17T17:02:47.540Z,27.13
2023-06-17T17:05:14.110Z,27.21
2023-06-17T17:07:40.717Z,28.27
2023-06-17T17:10:07.377Z,29.24
2023-06-17T17:12:33.872Z,28.86
2023-06-17T17:15:00.462Z,29.70
2023-06-17T17:17:27.024Z,30.29
2023-06-17T17:19:54.501Z,31.77
2023-06-17T17:22:20.968Z,31.66
2023-06-17T17:24:47.492Z,31.98
2023-06-17T17:27:13.982Z,31.48
2023-06-17T17:29:40.542Z,32.26
2023-06-17T17:32:07.333Z,31.89
2023-06-17T17:34:33.787Z,32.99
2023-06-17T17:37:00.460Z,32.62
2023-06-17T17:39:26.894Z,32.00
2023-06-17T17:41:53.298Z,31.50
2023-06-17T17:44:19.748Z,32.01
2023-06-17T17:46:46.250Z,33.19
2023-06-17T17:49:12.689Z,33.38
2023-06-17T17:51:39.215Z,34.19
2023-06-17T17:54:05.669Z,33.58
2023-06-17T17:56:32.302Z,32.88
2023-06-17T17:58:59.087Z,33.61
2023-06-17T18:01:26.126Z,33.04
2023-06-17T18:03:52.930Z,33.05
2023-06-17T18:06:20.634Z,34.16
2023-06-17T18:08:47.139Z,34.50
2023-06-17T18:11:14.477Z,34.48
2023-06-17T18:13:40.924Z,35.21
2023-06-17T18:16:07.728Z,34.77
2023-06-17T18:18:34.396Z,36.13
2023-06-17T18:21:00.847Z,35.42
2023-06-17T18:23:28.352Z,35.58
2023-06-17T18:25:56.825Z,35.62
2023-06-17T18:28:26.454Z,35.84
2023-06-17T18:31:00.431Z,35.65
2023-06-17T18:33:27.408Z,35.52
2023-06-17T18:35:54.051Z,35.52
2023-06-17T18:38:23.772Z,36.33
2023-06-17T18:40:52.049Z,36.00
2023-06-17T18:43:30.842Z,36.10
2023-06-17T18:45:57.482Z,36.45
2023-06-17T18:48:24.042Z,36.46
2023-06-17T18:50:52.091Z,36.56
2023-06-17T18:53:18.621Z,37.00
2023-06-17T18:55:53.538Z,36.27
2023-06-17T18:58:20.001Z,37.14
2023-06-17T19:00:46.781Z,37.65
2023-06-17T19:03:13.344Z,36.76
2023-06-17T19:05:40.876Z,37.41
2023-06-17T19:08:07.715Z,36.72
2023-06-17T19:10:34.135Z,37.11
2023-06-17T19:13:00.649Z,38.13
2023-06-17T19:15:27.364Z,37.57
2023-06-17T19:17:53.885Z,37.95
2023-06-17T19:20:20.557Z,38.42
2023-06-17T19:22:47.413Z,38.90
2023-06-17T19:25:14.054Z,38.86
2023-06-17T19:27:41.534Z,39.35
2023-06-17T19:30:08.363Z,39.46
2023-06-17T19:32:34.858Z,39.91
2023-06-17T19:35:01.974Z,40.28
2023-06-17T19:37:29.924Z,39.67
2023-06-17T19:39:56.584Z,39.25
2023-06-17T19:42:23.210Z,39.77
2023-06-17T19:44:57.054Z,40.25
2023-06-17T19:47:25.333Z,40.49
2023-06-17T19:49:53.627Z,41.38
2023-06-17T19:52:21.082Z,41.84
2023-06-17T19:54:47.671Z,42.50
2023-06-17T19:57:14.301Z,43.01
2023-06-17T19:59:40.891Z,42.68
2023-06-17T20:02:08.001Z,44.01
2023-06-17T20:04:35.360Z,43.79
2023-06-17T20:07:03.068Z,46.14
2023-06-17T20:09:30.090Z,44.06
2023-06-17T20:11:57.448Z,45.31
2023-06-17T20:14:36.310Z,45.86
2023-06-17T20:17:03.515Z,44.46
2023-06-17T20:19:29.986Z,47.84
2023-06-17T20:21:56.382Z,45.16
2023-06-17T20:24:22.902Z,46.85
2023-06-17T20:26:49.415Z,45.38
2023-06-17T20:29:15.993Z,45.33
2023-06-17T20:31:42.436Z,45.77
2023-06-17T20:34:08.948Z,46.58
2023-06-17T20:36:35.663Z,47.18
2023-06-17T20:39:02.194Z,46.82
2023-06-17T20:41:29.575Z,47.63
2023-06-17T20:43:56.173Z,46.05
2023-06-17T20:46:22.973Z,47.40
2023-06-17T20:48:49.571Z,45.96
2023-06-17T20:51:16.376Z,46.70
2023-06-17T20:53:42.878Z,47.23
2023-06-17T20:56:09.329Z,46.22
2023-06-17T20:58:35.812Z,46.04
2023-06-17T21:01:04.251Z,46.20
2023-06-17T21:03:31.633Z,47.85
2023-06-17T21:05:58.304Z,47.67
2023-06-17T21:08:24.798Z,48.23
2023-06-17T21:10:51.379Z,47.72
2023-06-17T21:13:17.857Z,47.22
2023-06-17T21:15:44.432Z,46.77
2023-06-17T21:18:11.121Z,47.31
2023-06-17T21:20:37.751Z,48.35
2023-06-17T21:23:04.505Z,49.33
2023-06-17T21:25:31.187Z,49.52
2023-06-17T21:28:00.027Z,48.97
2023-06-17T21:30:26.492Z,48.08
2023-06-17T21:32:53.347Z,48.83
2023-06-17T21:35:19.833Z,49.96
2023-06-17T21:37:46.325Z,48.20
2023-06-17T21:40:12.983Z,50.31
2023-06-17T21:42:39.951Z,49.66
2023-06-17T21:45:07.133Z,48.35
2023-06-17T21:47:33.640Z,49.97
2023-06-17T21:50:00.230Z,51.62
2023-06-17T21:52:26.816Z,47.80
2023-06-17T21:54:55.477Z,50.50
2023-06-17T21:57:23.314Z,50.16
2023-06-17T21:59:49.777Z,48.93
2023-06-17T22:02:16.328Z,48.60
2023-06-17T22:04:42.877Z,49.94
2023-06-17T22:07:09.410Z,52.56
2023-06-17T22:09:35.896Z,51.21
2023-06-17T22:12:02.358Z,50.08
2023-06-17T22:14:28.823Z,53.49
2023-06-17T22:16:57.988Z,51.95
2023-06-17T22:19:24.524Z,51.48
2023-06-17T22:21:53.929Z,49.27
2023-06-17T22:24:20.561Z,51.59
2023-06-17T22:26:47.018Z,50.38
2023-06-17T22:29:13.556Z,49.98
2023-06-17T22:31:40.183Z,50.78
2023-06-17T22:34:06.660Z,50.75
2023-06-17T22:36:33.080Z,50.55
2023-06-17T22:38:59.556Z,48.79
2023-06-17T22:41:26.049Z,50.92
2023-06-17T22:43:52.394Z,49.00
2023-06-17T22:46:18.977Z,50.08
2023-06-17T22:48:45.567Z,49.65
2023-06-17T22:51:12.382Z,49.75
2023-06-17T22:53:38.823Z,50.54
2023-06-17T22:56:05.940Z,48.16
2023-06-17T22:58:32.369Z,49.61
2023-06-17T23:00:58.875Z,50.61
2023-06-17T23:03:25.504Z,49.89
2023-06-17T23:05:51.996Z,49.55
2023-06-17T23:08:18.473Z,49.76
2023-06-17T23:10:44.924Z,50.41
2023-06-17T23:13:11.383Z,50.22
2023-06-17T23:15:40.099Z,51.24
2023-06-17T23:18:07.218Z,50.76
2023-06-17T23:20:34.273Z,51.77
2023-06-17T23:23:03.667Z,51.12
2023-06-17T23:25:30.160Z,51.18
2023-06-17T23:27:57.534Z,51.07
2023-06-17T23:30:25.275Z,51.70
2023-06-17T23:32:52.828Z,51.87
2023-06-17T23:35:19.342Z,51.40
2023-06-17T23:37:45.850Z,51.69
2023-06-17T23:40:12.378Z,51.00
2023-06-17T23:42:38.832Z,52.66
2023-06-17T23:45:07.065Z,51.91
2023-06-17T23:47:33.608Z,50.74
2023-06-17T23:50:00.221Z,51.63
2023-06-17T23:52:26.643Z,52.18
2023-06-17T23:54:53.070Z,54.31
2023-06-17T23:57:19.549Z,52.80
2023-06-17T23:59:45.990Z,52.95
